Radium, Kansas
Current Conditions -  °F | °C
As of 5:15 AM on Friday 24 Oct 2014 (Local Time) from KGBD Reporting Station
Clear Clear  
Wind Chill: 57°   Ceiling: Unl
Heat Index: 57°   Visibility: 5mi
Dew Point: 54°   Wind: 7mph
Humidity: 88%   Direction: 190°S
Pressure: 30.03"   Gusts: NA
Location:  38.1779°N, 99.1746°W
Report Text: KGBD 241015Z AUTO 19006KT 5SM CLR 14/12 A3003 RMK AO1
Loading
Personal Weather Stations






























Interactive Weather Map
Tropical Storm Tracking
New forecast layout! Learn more

10-Day Weather Forecast

Advertisements
Track Severe Weather on mobile